CZFM

Fort McPherson Airport

Fort Mcpherson, Northwest Territories, Canada
METAR CZFM 160000Z 17003KT 15SM FEW100 M28/M32 A2976 RMK AC2 44.0/0.0/SNWCVR/MUCH LOOSE LAST OBS/NXT 161500Z SLP084
Observed Flight Rules
Dec-16 @ 00:00 UTC (2 hours ago) Visual Flight Rules
Wind Visibility Clouds
170° at 3 knots 15 miles
  • Few at 10,000' AGL
Temperatures Readings
Current -28°C / -18°F
Dewpoint -32°C / -26°F
Humidity 69%
Altimeter 29.76" Hg
Pressure 1008.4 hPa
Elevation 43
METAR CZFM 160000Z 17003KT 15SM FEW100 M28/M32 A2976 RMK AC2 44.0/0.0/SNWCVR/MUCH LOOSE LAST OBS/NXT 161500Z SLP084
Observed Flight Rules
Dec-16 @ 00:00 UTC
(2 hours ago)
VFR
Wind Visibility
170° at 3 knots 15 miles
Clouds
  • Few at 10,000' AGL
Temperature Dewpoint
-28°C / -18°F -32°C / -26°F
Humidity Altimeter Pressure
69% 29.76" Hg 1008.4 hPa